createdAt,value
2019-03-28T00:02:11.861Z,27.20
2019-03-28T00:04:40.358Z,26.53
2019-03-28T00:07:08.768Z,30.07
2019-03-28T00:09:37.072Z,29.83
2019-03-28T00:12:05.269Z,25.57
2019-03-28T00:14:33.592Z,30.10
2019-03-28T00:17:01.753Z,27.97
2019-03-28T00:19:30.006Z,27.23
2019-03-28T00:21:58.310Z,28.00
2019-03-28T00:24:30.588Z,24.87
2019-03-28T00:26:59.043Z,31.00
2019-03-28T00:29:28.255Z,28.00
2019-03-28T00:31:56.807Z,30.50
2019-03-28T00:34:31.869Z,30.73
2019-03-28T00:37:03.741Z,31.07
2019-03-28T00:39:32.213Z,26.93
2019-03-28T00:42:01.744Z,31.70
2019-03-28T00:44:31.928Z,30.30
2019-03-28T00:47:04.438Z,29.60
2019-03-28T00:49:32.809Z,28.53
2019-03-28T00:52:01.572Z,30.40
2019-03-28T00:54:29.833Z,31.73
2019-03-28T00:56:59.349Z,29.50
2019-03-28T00:59:27.734Z,28.90
2019-03-28T01:01:56.224Z,29.83
2019-03-28T01:04:24.507Z,31.57
2019-03-28T01:06:53.014Z,33.20
2019-03-28T01:09:21.417Z,34.00
2019-03-28T01:11:49.732Z,33.20
2019-03-28T01:14:19.335Z,32.40
2019-03-28T01:16:47.699Z,31.53
2019-03-28T01:19:16.012Z,34.63
2019-03-28T01:21:44.303Z,29.47
2019-03-28T01:24:12.442Z,31.30
2019-03-28T01:26:51.909Z,33.10
2019-03-28T01:29:13.336Z,35.17
2019-03-28T01:31:41.558Z,34.27
2019-03-28T01:34:09.970Z,31.63
2019-03-28T01:36:38.283Z,37.10
2019-03-28T01:39:07.202Z,35.33
2019-03-28T01:41:35.642Z,34.13
2019-03-28T01:44:03.925Z,35.07
2019-03-28T01:46:32.142Z,37.10
2019-03-28T01:49:03.531Z,33.90
2019-03-28T01:51:31.193Z,36.27
2019-03-28T01:54:00.235Z,38.13
2019-03-28T01:56:28.542Z,35.63
2019-03-28T01:58:56.822Z,38.53
2019-03-28T02:01:25.199Z,38.10
2019-03-28T02:03:53.385Z,37.67
2019-03-28T02:06:21.616Z,39.17
2019-03-28T02:08:50.186Z,38.27
2019-03-28T02:11:18.480Z,40.07
2019-03-28T02:13:49.302Z,42.13
2019-03-28T02:16:17.526Z,38.90
2019-03-28T02:18:45.843Z,41.80
2019-03-28T02:21:14.105Z,37.70
2019-03-28T02:23:42.354Z,38.87
2019-03-28T02:26:16.876Z,38.43
2019-03-28T02:28:45.336Z,41.43
2019-03-28T02:31:13.599Z,38.50
2019-03-28T02:33:41.906Z,37.90
2019-03-28T02:36:13.457Z,41.43
2019-03-28T02:38:41.850Z,41.60
2019-03-28T02:41:10.662Z,42.13
2019-03-28T02:43:40.613Z,45.47
2019-03-28T02:46:09.654Z,39.27
2019-03-28T02:48:38.457Z,40.87
2019-03-28T02:51:06.939Z,41.07
2019-03-28T02:53:35.428Z,43.70
2019-03-28T02:56:03.666Z,43.77
2019-03-28T02:58:32.013Z,42.70
2019-03-28T03:01:00.668Z,39.37
2019-03-28T03:03:29.004Z,37.20
2019-03-28T03:05:57.566Z,41.00
2019-03-28T03:08:25.975Z,42.40
2019-03-28T03:10:54.396Z,42.57
2019-03-28T03:13:22.866Z,41.87
2019-03-28T03:15:51.532Z,43.93
2019-03-28T03:18:21.614Z,43.83
2019-03-28T03:20:50.125Z,43.83
2019-03-28T03:23:19.928Z,40.87
2019-03-28T03:25:48.600Z,44.07
2019-03-28T03:28:19.688Z,41.33
2019-03-28T03:30:50.253Z,40.13
2019-03-28T03:33:18.729Z,41.23
2019-03-28T03:35:47.102Z,40.27
2019-03-28T03:38:16.751Z,40.27
2019-03-28T03:40:45.088Z,42.03
2019-03-28T03:43:13.531Z,41.53
2019-03-28T03:45:41.808Z,41.23
2019-03-28T03:48:10.502Z,43.20
2019-03-28T03:50:39.885Z,38.07
2019-03-28T03:53:08.174Z,41.50
2019-03-28T03:55:36.500Z,41.00
2019-03-28T03:58:15.750Z,40.60
2019-03-28T04:00:35.976Z,40.53
2019-03-28T04:03:04.608Z,38.50
2019-03-28T04:05:32.949Z,41.40
2019-03-28T04:08:01.529Z,38.13
2019-03-28T04:10:30.055Z,41.50
2019-03-28T04:12:58.808Z,39.33
2019-03-28T04:15:27.107Z,38.33
2019-03-28T04:17:55.490Z,41.47
2019-03-28T04:20:24.981Z,40.40
2019-03-28T04:22:53.729Z,39.37
2019-03-28T04:25:22.748Z,36.50
2019-03-28T04:27:51.211Z,39.70
2019-03-28T04:30:20.713Z,37.30
2019-03-28T04:32:49.026Z,38.57
2019-03-28T04:35:17.478Z,42.93
2019-03-28T04:37:45.983Z,46.43
2019-03-28T04:40:14.362Z,38.87
2019-03-28T04:42:45.593Z,42.37
2019-03-28T04:45:12.995Z,38.93
2019-03-28T04:47:41.374Z,37.30
2019-03-28T04:50:10.435Z,38.70
2019-03-28T04:52:38.841Z,35.43
2019-03-28T04:55:07.498Z,36.03
2019-03-28T04:57:35.914Z,36.73
2019-03-28T05:00:05.025Z,36.87
2019-03-28T05:02:33.409Z,37.53
2019-03-28T05:05:01.931Z,42.63
2019-03-28T05:07:30.587Z,36.23
2019-03-28T05:09:58.961Z,38.93
2019-03-28T05:12:27.754Z,35.90
2019-03-28T05:14:56.405Z,35.97
2019-03-28T05:17:26.001Z,38.93
2019-03-28T05:19:54.564Z,35.17
2019-03-28T05:22:23.326Z,35.40
2019-03-28T05:24:51.771Z,36.30
2019-03-28T05:27:20.489Z,34.37
2019-03-28T05:29:49.004Z,37.63
2019-03-28T05:32:17.575Z,34.33
2019-03-28T05:34:45.957Z,34.70
2019-03-28T05:37:14.532Z,33.63
2019-03-28T05:39:43.003Z,35.47
2019-03-28T05:42:11.369Z,35.27
2019-03-28T05:44:39.835Z,35.07
2019-03-28T05:47:09.810Z,35.13
2019-03-28T05:49:38.582Z,37.83
2019-03-28T05:52:06.987Z,33.87
2019-03-28T05:54:35.745Z,33.50
2019-03-28T05:57:04.696Z,31.77
2019-03-28T05:59:33.237Z,33.60
2019-03-28T06:02:01.836Z,33.67
2019-03-28T06:04:30.384Z,30.97
2019-03-28T06:06:59.334Z,31.37
2019-03-28T06:09:30.932Z,28.57
2019-03-28T06:11:59.677Z,26.93
2019-03-28T06:14:28.016Z,25.00
2019-03-28T06:16:58.079Z,29.97
2019-03-28T06:19:26.771Z,26.13
2019-03-28T06:21:55.160Z,22.43
2019-03-28T06:24:28.925Z,27.50
2019-03-28T06:26:57.359Z,26.90
2019-03-28T06:29:25.961Z,24.10
2019-03-28T06:31:56.781Z,22.63
2019-03-28T06:34:28.566Z,22.33
2019-03-28T06:37:55.400Z,20.60
2019-03-28T06:40:23.802Z,22.20
2019-03-28T06:42:56.505Z,19.77
2019-03-28T06:45:24.575Z,22.07
2019-03-28T06:47:53.630Z,21.20
2019-03-28T06:50:24.929Z,42.17
2019-03-28T06:52:55.188Z,38.77
2019-03-28T06:55:24.122Z,45.93
2019-03-28T06:57:52.823Z,48.97
2019-03-28T07:00:21.943Z,50.87
2019-03-28T07:02:50.549Z,46.47
2019-03-28T07:05:22.252Z,51.57
2019-03-28T07:07:50.842Z,49.93
2019-03-28T07:10:20.768Z,40.10
2019-03-28T07:12:50.998Z,42.97
2019-03-28T07:15:20.559Z,43.60
2019-03-28T07:17:51.387Z,48.43
2019-03-28T07:20:20.580Z,42.50
2019-03-28T07:22:49.440Z,49.73
2019-03-28T07:25:21.500Z,35.47
2019-03-28T07:27:52.027Z,39.23
2019-03-28T07:30:24.619Z,38.00
2019-03-28T07:32:53.065Z,32.60
2019-03-28T07:35:24.424Z,37.10
2019-03-28T07:37:53.139Z,33.43
2019-03-28T07:40:21.897Z,33.10
2019-03-28T07:42:58.723Z,31.87
2019-03-28T07:45:27.608Z,28.73
2019-03-28T07:47:56.189Z,24.27
2019-03-28T07:50:28.257Z,19.67
2019-03-28T07:52:57.090Z,21.53
2019-03-28T07:55:25.921Z,19.27
2019-03-28T07:57:54.746Z,17.77
2019-03-28T08:00:27.438Z,14.90
2019-03-28T08:03:02.416Z,14.87
2019-03-28T08:05:31.084Z,15.27
2019-03-28T08:07:59.850Z,18.03
2019-03-28T08:12:58.269Z,14.27
2019-03-28T08:15:27.161Z,13.83
2019-03-28T08:17:56.244Z,15.13
2019-03-28T08:20:24.750Z,13.33
2019-03-28T08:22:53.719Z,11.93
2019-03-28T08:25:22.584Z,13.50
2019-03-28T08:27:51.000Z,15.40
2019-03-28T08:30:32.286Z,13.33
2019-03-28T08:33:02.828Z,12.57
2019-03-28T08:35:32.873Z,11.77
2019-03-28T08:38:01.684Z,13.37
2019-03-28T08:40:39.874Z,13.20
2019-03-28T08:43:09.195Z,10.13
2019-03-28T08:45:37.623Z,10.67
2019-03-28T08:48:06.333Z,10.27
2019-03-28T08:50:34.890Z,8.10
2019-03-28T08:53:03.335Z,7.73
2019-03-28T08:55:31.820Z,10.93
2019-03-28T08:58:01.880Z,11.70
2019-03-28T09:00:50.391Z,9.73
2019-03-28T09:03:08.933Z,9.80
2019-03-28T09:05:37.399Z,9.20
2019-03-28T09:08:10.247Z,13.07
2019-03-28T09:10:44.672Z,9.37
2019-03-28T09:13:19.274Z,12.03
2019-03-28T09:15:45.721Z,10.90
2019-03-28T09:18:14.686Z,10.73
2019-03-28T09:20:43.348Z,10.13
2019-03-28T09:23:14.808Z,10.40
2019-03-28T09:25:43.680Z,13.70
2019-03-28T09:28:14.564Z,11.83
2019-03-28T09:30:48.787Z,9.93
2019-03-28T09:33:16.868Z,11.17
2019-03-28T09:35:45.956Z,10.40
2019-03-28T09:38:15.073Z,11.03
2019-03-28T09:40:43.968Z,11.40
2019-03-28T09:43:12.938Z,13.20
2019-03-28T09:45:42.050Z,13.37
2019-03-28T09:48:11.859Z,11.10
2019-03-28T09:50:41.921Z,10.00
2019-03-28T09:53:10.519Z,10.07
2019-03-28T09:55:41.138Z,9.00
2019-03-28T09:58:09.483Z,10.27
2019-03-28T10:00:38.177Z,11.17
2019-03-28T10:03:07.013Z,10.77
2019-03-28T10:05:37.929Z,10.73
2019-03-28T10:08:05.890Z,12.03
2019-03-28T10:10:34.821Z,12.13
2019-03-28T10:13:03.351Z,9.27
2019-03-28T10:15:31.950Z,8.80
2019-03-28T10:18:00.284Z,8.83
2019-03-28T10:20:28.785Z,9.27
2019-03-28T10:22:57.193Z,8.70
2019-03-28T10:25:25.581Z,10.40
2019-03-28T10:27:55.296Z,13.23
2019-03-28T10:30:38.069Z,13.03
2019-03-28T10:33:06.887Z,12.40
2019-03-28T10:35:35.933Z,11.60
2019-03-28T10:38:05.117Z,10.13
2019-03-28T10:40:34.839Z,14.07
2019-03-28T10:43:03.704Z,14.73
2019-03-28T10:45:35.832Z,17.07
2019-03-28T10:48:04.835Z,15.70
2019-03-28T10:50:41.326Z,13.80
2019-03-28T10:53:03.975Z,10.47
2019-03-28T10:55:32.812Z,9.50
2019-03-28T10:58:01.323Z,8.97
2019-03-28T11:00:30.019Z,10.40
2019-03-28T11:02:58.724Z,10.10
2019-03-28T11:05:27.588Z,9.80
2019-03-28T11:07:56.432Z,8.93
2019-03-28T11:10:26.656Z,8.87
2019-03-28T11:12:56.723Z,8.73
2019-03-28T11:15:25.294Z,8.87
2019-03-28T11:17:53.848Z,11.30
2019-03-28T11:20:22.227Z,8.60
2019-03-28T11:22:50.801Z,10.90
2019-03-28T11:25:19.272Z,13.03
2019-03-28T11:27:47.903Z,9.90
2019-03-28T11:30:18.368Z,8.37
2019-03-28T11:32:47.082Z,11.50
2019-03-28T11:35:17.112Z,12.93
2019-03-28T11:37:45.728Z,13.43
2019-03-28T11:40:15.070Z,14.63
2019-03-28T11:42:43.552Z,16.37
2019-03-28T11:45:12.232Z,11.53
2019-03-28T11:47:40.712Z,12.90
2019-03-28T11:50:09.671Z,13.10
2019-03-28T11:52:38.190Z,12.80
2019-03-28T11:55:07.866Z,11.80
2019-03-28T11:57:36.310Z,10.87
2019-03-28T12:00:06.326Z,10.00
2019-03-28T12:02:34.644Z,11.30
2019-03-28T12:05:03.615Z,9.53
2019-03-28T12:07:32.149Z,12.27
2019-03-28T12:10:04.800Z,9.77
2019-03-28T12:12:33.295Z,9.57
2019-03-28T12:15:02.051Z,12.33
2019-03-28T12:17:31.121Z,10.30
2019-03-28T12:20:02.125Z,11.17
2019-03-28T12:22:30.889Z,14.17
2019-03-28T12:24:59.699Z,14.97
2019-03-28T12:27:28.201Z,12.90
2019-03-28T12:29:56.777Z,13.10
2019-03-28T12:32:25.200Z,15.07
2019-03-28T12:34:53.585Z,14.37
2019-03-28T12:37:22.048Z,14.70
2019-03-28T12:39:50.630Z,16.50
2019-03-28T12:42:19.118Z,15.73
2019-03-28T12:44:56.911Z,14.07
2019-03-28T12:47:17.979Z,11.63
2019-03-28T12:49:46.264Z,9.00
2019-03-28T12:52:14.787Z,8.37
2019-03-28T12:54:44.265Z,10.17
2019-03-28T12:57:14.393Z,9.27
2019-03-28T12:59:44.681Z,12.30
2019-03-28T13:02:26.905Z,9.93
2019-03-28T13:04:44.593Z,11.97
2019-03-28T13:07:13.040Z,8.70
2019-03-28T13:09:41.386Z,9.30
2019-03-28T13:12:09.582Z,10.40
2019-03-28T13:14:38.322Z,9.87
2019-03-28T13:17:09.491Z,12.00
2019-03-28T13:19:37.950Z,10.97
2019-03-28T13:22:06.412Z,12.03
2019-03-28T13:24:34.962Z,10.67
2019-03-28T13:27:03.439Z,11.60
2019-03-28T13:29:31.995Z,10.87
2019-03-28T13:32:00.350Z,11.63
2019-03-28T13:34:28.623Z,8.47
2019-03-28T13:36:57.031Z,5.77
2019-03-28T13:39:25.514Z,7.70
2019-03-28T13:41:54.076Z,5.93
2019-03-28T13:44:22.722Z,8.63
2019-03-28T13:46:51.387Z,8.33
2019-03-28T13:49:19.903Z,9.33
2019-03-28T13:51:48.260Z,11.33
2019-03-28T13:54:16.571Z,10.77
2019-03-28T13:56:44.975Z,12.37
2019-03-28T13:59:13.234Z,10.70
2019-03-28T14:01:41.795Z,9.73
2019-03-28T14:04:14.399Z,11.57
2019-03-28T14:06:46.458Z,12.03
2019-03-28T14:09:11.114Z,10.27
2019-03-28T14:11:39.777Z,8.63
2019-03-28T14:14:09.145Z,7.80
2019-03-28T14:16:37.476Z,7.37
2019-03-28T14:19:05.816Z,11.53
2019-03-28T14:21:34.348Z,7.63
2019-03-28T14:24:03.023Z,6.50
2019-03-28T14:26:31.386Z,7.30
2019-03-28T14:28:59.884Z,5.47
2019-03-28T14:31:28.220Z,6.17
2019-03-28T14:33:56.702Z,4.57
2019-03-28T14:36:25.534Z,5.30
2019-03-28T14:38:53.956Z,5.77
2019-03-28T14:41:22.607Z,5.87
2019-03-28T14:43:51.130Z,6.60
2019-03-28T14:46:19.683Z,7.73
2019-03-28T14:48:48.220Z,8.87
2019-03-28T14:51:16.601Z,7.97
2019-03-28T14:53:45.075Z,9.67
2019-03-28T14:56:13.815Z,6.43
2019-03-28T14:58:43.934Z,9.27
2019-03-28T15:01:15.570Z,6.00
2019-03-28T15:03:43.895Z,4.90
2019-03-28T15:06:12.383Z,4.77
2019-03-28T15:08:40.746Z,5.43
2019-03-28T15:11:09.941Z,4.80
2019-03-28T15:13:40.478Z,5.20
2019-03-28T15:16:08.364Z,4.83
2019-03-28T15:18:36.841Z,4.73
2019-03-28T15:21:05.318Z,3.90
2019-03-28T15:23:33.686Z,4.60
2019-03-28T15:26:02.914Z,6.10
2019-03-28T15:28:31.293Z,6.07
2019-03-28T15:30:59.614Z,5.13
2019-03-28T15:33:38.764Z,5.07
2019-03-28T15:35:58.449Z,5.37
2019-03-28T15:38:26.914Z,6.33
2019-03-28T15:40:57.918Z,5.17
2019-03-28T15:43:26.576Z,5.70
2019-03-28T15:45:55.065Z,7.47
2019-03-28T15:48:28.619Z,8.30
2019-03-28T15:50:56.842Z,4.67
2019-03-28T15:53:31.748Z,4.57
2019-03-28T15:56:00.199Z,4.20
2019-03-28T15:58:28.417Z,4.20
2019-03-28T16:00:56.882Z,3.80
2019-03-28T16:03:25.276Z,5.03
2019-03-28T16:05:58.389Z,5.33
2019-03-28T16:08:24.282Z,4.70
2019-03-28T16:10:53.249Z,5.80
2019-03-28T16:13:22.890Z,5.97
2019-03-28T16:15:51.458Z,4.90
2019-03-28T16:18:19.742Z,6.23
2019-03-28T16:20:53.258Z,7.20
2019-03-28T16:23:20.107Z,5.37
2019-03-28T16:25:48.583Z,6.87
2019-03-28T16:28:17.127Z,7.63
2019-03-28T16:30:45.548Z,7.07
2019-03-28T16:33:15.352Z,7.67
2019-03-28T16:35:43.718Z,7.50
2019-03-28T16:38:12.093Z,7.20
2019-03-28T16:40:40.685Z,9.37
2019-03-28T16:43:09.034Z,9.87
2019-03-28T16:45:37.308Z,10.40
2019-03-28T16:48:05.871Z,9.77
2019-03-28T16:50:34.363Z,9.20
2019-03-28T16:53:03.394Z,9.07
2019-03-28T16:55:31.666Z,8.90
2019-03-28T16:58:00.261Z,10.10
2019-03-28T17:00:36.190Z,10.03
2019-03-28T17:03:04.861Z,12.17
2019-03-28T17:05:34.791Z,10.70
2019-03-28T17:08:04.388Z,13.33
2019-03-28T17:10:51.929Z,10.93
2019-03-28T17:13:20.194Z,10.90
2019-03-28T17:15:48.823Z,10.10
2019-03-28T17:18:18.722Z,9.77
2019-03-28T17:20:47.302Z,11.50
2019-03-28T17:23:15.664Z,13.57
2019-03-28T17:25:44.128Z,10.37
2019-03-28T17:28:15.305Z,13.30
2019-03-28T17:30:43.874Z,13.00
2019-03-28T17:33:12.228Z,12.47
2019-03-28T17:35:40.929Z,12.73
2019-03-28T17:38:09.398Z,14.57
2019-03-28T17:40:37.651Z,12.53
2019-03-28T17:43:06.091Z,14.20
2019-03-28T17:45:34.479Z,14.57
2019-03-28T17:48:03.004Z,14.63
2019-03-28T17:50:31.232Z,14.80
2019-03-28T17:52:59.407Z,14.97
2019-03-28T17:55:27.778Z,12.97
2019-03-28T17:57:56.172Z,14.13
2019-03-28T18:00:27.817Z,15.30
2019-03-28T18:03:08.128Z,15.40
2019-03-28T18:05:25.630Z,24.13
2019-03-28T18:07:54.392Z,16.47
2019-03-28T18:10:22.766Z,20.63
2019-03-28T18:12:51.168Z,18.20
2019-03-28T18:15:19.605Z,17.27
2019-03-28T18:17:48.038Z,25.90
2019-03-28T18:20:18.731Z,20.60
2019-03-28T18:23:09.404Z,18.77
2019-03-28T18:25:38.074Z,17.90
2019-03-28T18:28:06.383Z,19.87
2019-03-28T18:30:37.246Z,19.83
2019-03-28T18:33:05.082Z,19.30
2019-03-28T18:35:34.163Z,17.77
2019-03-28T18:38:03.358Z,20.77
2019-03-28T18:40:31.698Z,21.77
2019-03-28T18:43:01.583Z,19.20
2019-03-28T18:45:30.279Z,21.83
2019-03-28T18:47:58.668Z,19.73
2019-03-28T18:50:28.976Z,18.87
2019-03-28T18:52:57.311Z,20.73
2019-03-28T18:55:25.553Z,19.77
2019-03-28T18:57:54.192Z,21.87
2019-03-28T19:00:22.663Z,20.60
2019-03-28T19:02:51.164Z,21.73
2019-03-28T19:05:20.499Z,19.97
2019-03-28T19:07:48.769Z,20.70
2019-03-28T19:10:17.361Z,23.93
2019-03-28T19:12:47.807Z,30.73
2019-03-28T19:15:16.816Z,29.30
2019-03-28T19:17:45.150Z,28.40
2019-03-28T19:20:15.462Z,31.60
2019-03-28T19:22:43.797Z,27.00
2019-03-28T19:25:12.441Z,25.00
2019-03-28T19:27:40.816Z,29.00
2019-03-28T19:30:10.018Z,25.47
2019-03-28T19:32:38.361Z,26.53
2019-03-28T19:35:07.874Z,24.37
2019-03-28T19:37:37.356Z,24.27
2019-03-28T19:40:07.063Z,25.67
2019-03-28T19:42:35.804Z,26.70
2019-03-28T19:45:04.547Z,25.40
2019-03-28T19:47:32.938Z,24.73
2019-03-28T19:50:01.503Z,23.77
2019-03-28T19:52:31.780Z,28.70
2019-03-28T19:55:00.059Z,25.53
2019-03-28T19:57:31.079Z,27.47
2019-03-28T19:59:59.513Z,27.57
2019-03-28T20:02:29.561Z,27.40
2019-03-28T20:05:01.045Z,24.10
2019-03-28T20:07:30.053Z,28.97
2019-03-28T20:09:58.501Z,26.70
2019-03-28T20:12:29.690Z,23.83
2019-03-28T20:15:00.302Z,24.33
2019-03-28T20:17:29.179Z,24.83
2019-03-28T20:19:57.596Z,24.53
2019-03-28T20:22:27.258Z,25.63
2019-03-28T20:24:58.265Z,26.37
2019-03-28T20:27:26.800Z,26.90
2019-03-28T20:30:02.929Z,25.57
2019-03-28T20:32:31.455Z,26.43
2019-03-28T20:35:05.433Z,25.03
2019-03-28T20:37:33.995Z,24.20
2019-03-28T20:40:02.684Z,27.57
2019-03-28T20:42:32.244Z,31.13
2019-03-28T20:45:00.979Z,25.60
2019-03-28T20:47:29.825Z,28.00
2019-03-28T20:49:58.314Z,29.60
2019-03-28T20:52:26.824Z,29.27
2019-03-28T20:54:55.589Z,27.37
2019-03-28T20:57:25.865Z,26.00
2019-03-28T20:59:54.436Z,26.87
2019-03-28T21:02:23.282Z,27.50
2019-03-28T21:04:51.798Z,27.10
2019-03-28T21:07:23.048Z,29.80
2019-03-28T21:09:53.014Z,30.13
2019-03-28T21:12:21.785Z,29.47
2019-03-28T21:14:50.805Z,30.80
2019-03-28T21:17:19.498Z,31.20
2019-03-28T21:19:48.181Z,32.63
2019-03-28T21:22:16.673Z,34.93
2019-03-28T21:24:45.085Z,35.00
2019-03-28T21:27:13.860Z,32.50
2019-03-28T21:29:49.080Z,33.03
2019-03-28T21:32:18.883Z,35.20
2019-03-28T21:34:48.894Z,34.87
2019-03-28T21:37:17.759Z,34.27
2019-03-28T21:39:46.181Z,33.50
2019-03-28T21:42:14.696Z,34.43
2019-03-28T21:44:43.477Z,32.60
2019-03-28T21:47:12.426Z,35.33
2019-03-28T21:49:40.942Z,30.13
2019-03-28T21:52:09.539Z,35.07
2019-03-28T21:54:38.305Z,34.27
2019-03-28T21:57:07.071Z,33.97
2019-03-28T21:59:35.568Z,31.23
2019-03-28T22:02:04.300Z,35.53
2019-03-28T22:04:33.430Z,32.23
2019-03-28T22:07:03.412Z,35.57
2019-03-28T22:09:32.764Z,37.63
2019-03-28T22:12:02.802Z,41.70
2019-03-28T22:14:31.950Z,37.17
2019-03-28T22:17:01.108Z,38.40
2019-03-28T22:19:30.462Z,37.00
2019-03-28T22:21:59.063Z,41.87
2019-03-28T22:24:32.184Z,37.63
2019-03-28T22:26:59.109Z,38.37
2019-03-28T22:29:27.851Z,39.67
2019-03-28T22:31:56.949Z,39.57
2019-03-28T22:34:25.884Z,43.33
2019-03-28T22:36:57.724Z,42.00
2019-03-28T22:39:25.169Z,39.30
2019-03-28T22:41:53.595Z,41.13
2019-03-28T22:44:22.350Z,42.57
2019-03-28T22:46:52.002Z,45.23
2019-03-28T22:49:20.674Z,41.73
2019-03-28T22:51:53.399Z,39.57
2019-03-28T22:54:21.970Z,40.67
2019-03-28T22:56:50.669Z,41.90
2019-03-28T22:59:19.847Z,41.67
2019-03-28T23:01:48.673Z,39.17
2019-03-28T23:04:17.216Z,43.67
2019-03-28T23:06:45.889Z,41.17
2019-03-28T23:09:14.421Z,45.43
2019-03-28T23:11:42.854Z,43.37
2019-03-28T23:14:12.172Z,44.87
2019-03-28T23:16:55.035Z,42.77
2019-03-28T23:19:21.345Z,44.23
2019-03-28T23:21:50.008Z,46.10
2019-03-28T23:24:18.620Z,38.87
2019-03-28T23:26:47.952Z,39.43
2019-03-28T23:29:17.577Z,42.20
2019-03-28T23:31:50.727Z,39.23
2019-03-28T23:34:20.788Z,42.03
2019-03-28T23:36:49.397Z,41.87
2019-03-28T23:39:18.036Z,46.77
2019-03-28T23:41:47.804Z,45.90
2019-03-28T23:44:16.917Z,44.53
2019-03-28T23:46:45.848Z,47.17
2019-03-28T23:49:14.456Z,54.20
2019-03-28T23:51:43.056Z,58.83
2019-03-28T23:54:11.523Z,58.93
2019-03-28T23:56:41.643Z,63.83
2019-03-28T23:59:13.322Z,56.40
